Henderson, Minnesota
Current Conditions -  °F | °C
As of 6:14 PM on Friday 28 Nov 2014 (Local Time) from KGYL Reporting Station
Scattered Clouds Scattered Clouds  
Wind Chill: 16°   Ceiling: Unl
Heat Index: 23°   Visibility: 10mi
Dew Point: 20°   Wind: 6mph
Humidity: 89%   Direction: 80°E
Pressure: 29.8"   Gusts: NA
Location:  44.53°N, 93.91°W
Report Text: KGYL 290014Z AUTO 08005KT 10SM SCT120 M05/M06 A2980 RMK AO2 T10501065
Loading
Personal Weather Stations






























Interactive Weather Map New forecast layout! Learn more

10-Day Weather Forecast

Advertisements
Track Severe Weather on mobile